Time;durP1;ratioP1;P1;durP2;ratioP2;P2;SDS_P1;SDS_P2;PMS_P1;PMS_P2;Temp;Humidity;BMP_temperature;BMP_pressure;BME280_temperature;BME280_humidity;BME280_pressure;Samples;Min_cycle;Max_cycle;Signal;HPM_P1;HPM_P2
2022/09/04 00:01:29;;;;;;;8.10;4.80;;;22.90;81.90;;;;;;5095633;28;20759;-60
2022/09/04 00:04:18;;;;;;;13.65;5.85;;;22.90;82.30;;;;;;5094902;28;20177;-60
2022/09/04 00:07:04;;;;;;;7.85;4.78;;;22.80;82.70;;;;;;5077311;28;20695;-60
2022/09/04 00:09:37;;;;;;;10.13;4.53;;;22.70;83.10;;;;;;5098273;27;20173;-62
2022/09/04 00:12:07;;;;;;;8.73;4.95;;;22.60;83.50;;;;;;5098226;28;20177;-60
2022/09/04 00:14:36;;;;;;;9.68;4.88;;;22.60;83.90;;;;;;5114464;28;20192;-60
2022/09/04 00:17:09;;;;;;;12.38;7.05;;;22.60;84.10;;;;;;5098197;28;20533;-60
2022/09/04 00:19:58;;;;;;;18.15;6.90;;;22.60;84.30;;;;;;5094200;28;20253;-60
2022/09/04 00:22:32;;;;;;;19.20;8.82;;;22.50;84.20;;;;;;5094468;28;20637;-60
2022/09/04 00:25:16;;;;;;;12.93;8.57;;;22.40;84.30;;;;;;5093487;28;20180;-61
2022/09/04 00:27:45;;;;;;;12.27;7.13;;;22.40;84.30;;;;;;5089740;28;20198;-60
2022/09/04 00:30:21;;;;;;;8.25;5.78;;;22.30;84.40;;;;;;5113188;28;20176;-61
2022/09/04 00:32:50;;;;;;;7.65;5.45;;;22.30;84.40;;;;;;5079442;28;20177;-62
2022/09/04 00:35:36;;;;;;;10.43;5.93;;;22.20;84.40;;;;;;5099638;27;20220;-61
2022/09/04 00:38:06;;;;;;;17.92;9.95;;;22.20;84.60;;;;;;5094231;28;20673;-61
2022/09/04 00:40:40;;;;;;;14.13;6.50;;;22.10;84.60;;;;;;5075348;28;20178;-61
2022/09/04 00:43:28;;;;;;;9.02;5.47;;;22.00;84.70;;;;;;5079483;28;20172;-61
2022/09/04 00:46:08;;;;;;;7.75;5.35;;;22.00;84.80;;;;;;5093852;28;20192;-61
2022/09/04 00:48:52;;;;;;;7.40;5.43;;;21.90;85.00;;;;;;5095842;28;20329;-61
2022/09/04 00:51:26;;;;;;;10.23;6.75;;;21.90;84.90;;;;;;5111854;28;20176;-61
2022/09/04 00:54:04;;;;;;;12.45;6.80;;;21.80;84.90;;;;;;5095743;27;20177;-60
2022/09/04 00:56:57;;;;;;;9.45;5.70;;;21.90;85.10;;;;;;5100863;28;20177;-59
2022/09/04 00:59:50;;;;;;;14.85;6.20;;;21.80;85.10;;;;;;5103534;28;20185;-60
2022/09/04 01:02:33;;;;;;;15.90;9.60;;;21.80;85.10;;;;;;5095122;28;20178;-60
2022/09/04 01:05:08;;;;;;;12.65;6.65;;;21.80;85.10;;;;;;5097625;28;20177;-60
2022/09/04 01:08:09;;;;;;;11.23;6.50;;;21.80;85.10;;;;;;5093467;28;20197;-60
2022/09/04 01:10:53;;;;;;;14.80;6.60;;;21.70;85.20;;;;;;5099158;28;20269;-60
2022/09/04 01:13:38;;;;;;;10.93;6.03;;;21.60;85.50;;;;;;5092709;28;20184;-60
2022/09/04 01:16:23;;;;;;;9.63;6.13;;;21.60;85.80;;;;;;5081065;28;20181;-61
2022/09/04 01:19:28;;;;;;;10.35;6.82;;;21.50;86.10;;;;;;5090956;28;20178;-60
2022/09/04 01:22:09;;;;;;;13.55;7.60;;;21.50;86.50;;;;;;5074654;28;20190;-60
2022/09/04 01:24:58;;;;;;;10.05;7.47;;;21.50;86.80;;;;;;5092300;28;21649;-61
2022/09/04 01:27:30;;;;;;;10.02;7.28;;;21.40;86.90;;;;;;5091409;28;20307;-61
2022/09/04 01:30:08;;;;;;;9.38;7.35;;;21.40;87.20;;;;;;5105209;28;20204;-60
2022/09/04 01:32:47;;;;;;;15.55;7.22;;;21.40;87.40;;;;;;5096412;28;20226;-60
2022/09/04 01:35:21;;;;;;;11.68;7.00;;;21.40;87.50;;;;;;5090259;28;20183;-61
2022/09/04 01:38:05;;;;;;;11.85;7.15;;;21.40;87.70;;;;;;5092003;28;20188;-60
2022/09/04 01:40:34;;;;;;;10.55;7.72;;;21.40;88.70;;;;;;5093362;28;20170;-60
2022/09/04 01:43:05;;;;;;;13.65;8.43;;;21.30;88.20;;;;;;5091178;28;20227;-60
2022/09/04 01:45:55;;;;;;;12.63;8.80;;;21.30;88.60;;;;;;5089734;28;20529;-60
2022/09/04 01:48:45;;;;;;;14.07;8.95;;;21.20;89.00;;;;;;5101990;28;20205;-61
2022/09/04 01:51:20;;;;;;;12.50;9.70;;;21.20;89.50;;;;;;5095757;28;20170;-61
2022/09/04 01:56:43;;;;;;;14.88;9.18;;;21.10;90.00;;;;;;5068859;28;20584;-59
2022/09/04 01:59:33;;;;;;;13.43;9.70;;;21.10;90.40;;;;;;5085199;28;20537;-60
2022/09/04 02:02:19;;;;;;;13.57;10.00;;;21.10;90.40;;;;;;5068622;28;20626;-60
2022/09/04 02:05:06;;;;;;;15.88;10.18;;;21.10;90.50;;;;;;5071328;28;20186;-60
2022/09/04 02:08:08;;;;;;;22.13;11.45;;;21.10;90.70;;;;;;5067242;28;20179;-60
2022/09/04 02:10:45;;;;;;;15.85;10.32;;;21.10;90.70;;;;;;5069124;28;20205;-60
2022/09/04 02:13:42;;;;;;;19.00;10.82;;;21.10;90.90;;;;;;5048690;28;20185;-60
2022/09/04 02:16:29;;;;;;;16.40;11.05;;;21.10;91.00;;;;;;5061853;28;20203;-60
2022/09/04 02:19:00;;;;;;;17.17;11.43;;;21.10;91.10;;;;;;5068365;28;20185;-60
2022/09/04 02:21:38;;;;;;;16.60;11.60;;;21.00;91.20;;;;;;5069013;28;20189;-59
2022/09/04 02:24:13;;;;;;;16.40;10.80;;;21.10;91.40;;;;;;5067077;28;20178;-59
2022/09/04 02:26:44;;;;;;;16.30;11.07;;;21.10;91.50;;;;;;5067096;28;20190;-59
2022/09/04 02:29:29;;;;;;;15.52;11.45;;;21.00;91.60;;;;;;5068112;28;20185;-60
2022/09/04 02:32:05;;;;;;;11.93;10.52;;;21.10;91.80;;;;;;5067183;28;20181;-59
2022/09/04 02:34:48;;;;;;;17.17;10.82;;;21.10;91.80;;;;;;5063459;28;20293;-60
2022/09/04 02:37:33;;;;;;;15.93;10.95;;;21.10;91.80;;;;;;5050971;28;20266;-61
2022/09/04 02:40:04;;;;;;;15.93;11.90;;;21.10;91.80;;;;;;5078631;28;20217;-60
2022/09/04 02:42:43;;;;;;;17.10;12.07;;;21.10;91.90;;;;;;5068725;28;20186;-59
2022/09/04 02:45:56;;;;;;;17.70;11.02;;;21.00;91.90;;;;;;5063314;28;20182;-60
2022/09/04 02:48:33;;;;;;;16.98;11.57;;;21.00;92.00;;;;;;5042249;28;20221;-59
2022/09/04 02:51:05;;;;;;;16.35;11.15;;;21.10;92.00;;;;;;5069060;28;20710;-60
2022/09/04 02:53:33;;;;;;;15.20;12.02;;;21.10;92.10;;;;;;5068200;28;20186;-59
2022/09/04 02:56:30;;;;;;;18.55;13.18;;;21.00;92.20;;;;;;5059495;28;20222;-60
2022/09/04 02:59:06;;;;;;;17.27;12.95;;;20.90;92.30;;;;;;5065854;28;20212;-60
2022/09/04 03:01:45;;;;;;;18.75;12.57;;;20.90;92.50;;;;;;5063880;28;20182;-60
2022/09/04 03:04:19;;;;;;;21.35;12.85;;;20.90;92.70;;;;;;5067380;28;20201;-60
2022/09/04 03:07:06;;;;;;;23.75;13.63;;;20.80;92.80;;;;;;5059889;28;20187;-59
2022/09/04 03:09:35;;;;;;;18.65;13.07;;;20.80;93.00;;;;;;5054727;28;20294;-59
2022/09/04 03:12:38;;;;;;;15.93;13.02;;;20.80;93.10;;;;;;5053408;28;20191;-60
2022/09/04 03:15:12;;;;;;;16.17;13.63;;;20.80;93.10;;;;;;5045917;28;20207;-60
2022/09/04 03:18:01;;;;;;;15.98;13.13;;;20.80;93.20;;;;;;5054887;28;20194;-60
2022/09/04 03:20:29;;;;;;;19.20;13.73;;;20.80;93.30;;;;;;5041743;28;21068;-59
2022/09/04 03:23:08;;;;;;;21.55;13.73;;;20.80;93.30;;;;;;5050746;28;20187;-61
2022/09/04 03:25:43;;;;;;;25.27;13.85;;;20.80;93.50;;;;;;5044630;28;20434;-59
2022/09/04 03:28:33;;;;;;;21.35;13.32;;;20.80;93.50;;;;;;5054675;28;20183;-60
2022/09/04 03:31:12;;;;;;;17.20;13.57;;;20.80;93.60;;;;;;5046561;28;20182;-60
2022/09/04 03:33:46;;;;;;;19.45;13.40;;;20.80;93.70;;;;;;5049787;28;20183;-60
2022/09/04 03:36:29;;;;;;;23.15;14.75;;;20.70;93.70;;;;;;5035117;28;20250;-59
2022/09/04 03:39:03;;;;;;;20.88;14.93;;;20.70;93.90;;;;;;5035656;28;20263;-60
2022/09/04 03:41:51;;;;;;;21.20;15.52;;;20.70;94.00;;;;;;5052267;28;20673;-60
2022/09/04 03:44:23;;;;;;;22.70;15.25;;;20.60;94.20;;;;;;5050287;28;20180;-61
2022/09/04 03:47:03;;;;;;;22.88;16.08;;;20.60;94.40;;;;;;5041824;28;20765;-60
2022/09/04 03:49:50;;;;;;;18.92;16.00;;;20.50;94.60;;;;;;5052834;28;20753;-60
2022/09/04 03:52:34;;;;;;;22.48;17.08;;;20.40;94.80;;;;;;5054799;28;20187;-60
2022/09/04 03:55:18;;;;;;;23.38;17.27;;;20.40;95.00;;;;;;5050459;28;20226;-61
2022/09/04 03:58:23;;;;;;;23.70;17.55;;;20.40;95.10;;;;;;5052065;28;20281;-60
2022/09/04 04:00:58;;;;;;;23.27;16.65;;;20.30;95.20;;;;;;5051904;28;20181;-60
2022/09/04 04:03:54;;;;;;;19.10;16.92;;;20.20;95.40;;;;;;5053105;28;20170;-59
2022/09/04 04:06:42;;;;;;;21.60;16.92;;;20.20;95.50;;;;;;5044267;28;20186;-60
2022/09/04 04:09:27;;;;;;;23.90;16.98;;;20.10;95.60;;;;;;5043678;28;20604;-59
2022/09/04 04:12:11;;;;;;;24.38;16.90;;;20.10;95.60;;;;;;5052803;28;20227;-58
2022/09/04 04:14:40;;;;;;;29.17;19.92;;;20.00;95.70;;;;;;5052190;28;20643;-59
2022/09/04 04:17:44;;;;;;;21.08;17.75;;;20.10;95.80;;;;;;5040686;28;20182;-60
2022/09/04 04:20:20;;;;;;;23.25;19.65;;;20.00;95.80;;;;;;5048630;28;20261;-61
2022/09/04 04:22:52;;;;;;;25.52;19.75;;;20.00;96.00;;;;;;5054824;28;20166;-60
2022/09/04 04:25:47;;;;;;;28.13;21.35;;;19.90;96.10;;;;;;5047205;28;20267;-60
2022/09/04 04:28:28;;;;;;;30.80;21.20;;;19.90;96.20;;;;;;5046460;28;20201;-59
2022/09/04 04:31:07;;;;;;;29.63;19.63;;;19.80;96.30;;;;;;5051480;28;20518;-60
2022/09/04 04:33:45;;;;;;;31.95;19.80;;;19.70;96.50;;;;;;5052871;28;20612;-59
2022/09/04 04:36:47;;;;;;;28.38;20.17;;;19.70;96.70;;;;;;5040274;28;20256;-60
2022/09/04 04:39:24;;;;;;;26.65;20.05;;;19.70;96.80;;;;;;5045099;28;20170;-60
2022/09/04 04:42:10;;;;;;;25.23;20.27;;;19.70;96.90;;;;;;5047118;28;20183;-59
2022/09/04 04:48:27;;;;;;;27.25;22.13;;;19.70;96.90;;;;;;5040002;28;20179;-60
2022/09/04 04:51:17;;;;;;;23.65;20.52;;;19.60;96.90;;;;;;5045881;28;20175;-59
2022/09/04 04:53:48;;;;;;;29.60;21.60;;;19.60;97.00;;;;;;5051699;28;20164;-59
2022/09/04 04:56:23;;;;;;;29.40;22.25;;;19.60;97.10;;;;;;5062581;28;20664;-59
2022/09/04 04:59:19;;;;;;;26.63;21.25;;;19.60;97.10;;;;;;5043402;28;20249;-60
2022/09/04 05:02:17;;;;;;;25.33;21.35;;;19.60;97.30;;;;;;5049414;28;20168;-59
2022/09/04 05:05:21;;;;;;;28.92;21.88;;;19.60;97.30;;;;;;5053529;28;20627;-60
2022/09/04 05:08:14;;;;;;;27.13;21.70;;;19.50;97.30;;;;;;5047682;28;20185;-60
2022/09/04 05:10:46;;;;;;;27.23;20.67;;;19.50;97.50;;;;;;5047142;28;20202;-60
2022/09/04 05:13:25;;;;;;;25.67;21.08;;;19.50;97.60;;;;;;5052643;28;20175;-60
2022/09/04 05:16:13;;;;;;;26.85;20.95;;;19.50;97.70;;;;;;5051005;28;20231;-59
2022/09/04 05:18:53;;;;;;;30.17;21.65;;;19.60;97.70;;;;;;5067003;28;20179;-60
2022/09/04 05:21:58;;;;;;;30.38;22.92;;;19.60;97.80;;;;;;5052410;28;20651;-60
2022/09/04 05:24:54;;;;;;;36.13;21.17;;;19.60;97.90;;;;;;4993292;28;20708;-60
2022/09/04 05:27:29;;;;;;;29.02;22.10;;;19.60;97.90;;;;;;5047399;28;20344;-59
2022/09/04 05:30:02;;;;;;;28.50;22.52;;;19.60;98.00;;;;;;5039316;28;20249;-60
2022/09/04 05:32:39;;;;;;;30.92;22.10;;;19.50;98.10;;;;;;5044169;28;20612;-59
2022/09/04 05:35:30;;;;;;;29.80;22.05;;;19.50;98.20;;;;;;5042090;28;20191;-60
2022/09/04 05:38:10;;;;;;;33.17;22.52;;;19.50;98.30;;;;;;5050710;28;20187;-59
2022/09/04 05:40:45;;;;;;;33.45;22.65;;;19.60;98.40;;;;;;5051954;28;20210;-59
2022/09/04 05:43:33;;;;;;;29.15;22.40;;;19.50;98.50;;;;;;5050281;28;20179;-60
2022/09/04 05:46:03;;;;;;;31.02;22.58;;;19.60;98.60;;;;;;5042473;28;20215;-58
2022/09/04 05:48:38;;;;;;;31.05;23.25;;;19.60;98.70;;;;;;5044941;28;20254;-60
2022/09/04 05:51:22;;;;;;;31.30;24.17;;;19.50;98.70;;;;;;5038799;28;20652;-60
2022/09/04 05:54:03;;;;;;;35.30;23.73;;;19.60;98.90;;;;;;5056437;28;20197;-59
2022/09/04 05:56:47;;;;;;;29.75;23.38;;;19.60;98.90;;;;;;5051623;28;20666;-60
2022/09/04 05:59:33;;;;;;;31.08;23.55;;;19.60;99.00;;;;;;5049977;28;20218;-59
2022/09/04 06:02:16;;;;;;;33.85;23.55;;;19.60;99.10;;;;;;5061605;28;20720;-58
2022/09/04 06:04:42;;;;;;;32.25;24.10;;;19.70;99.10;;;;;;5049464;28;20191;-58
2022/09/04 06:07:36;;;;;;;29.10;23.67;;;19.70;99.10;;;;;;5049712;28;20187;-59
2022/09/04 06:10:28;;;;;;;29.17;24.10;;;19.70;99.20;;;;;;5052529;28;20576;-63
2022/09/04 06:13:13;;;;;;;32.63;24.58;;;19.80;99.20;;;;;;5040706;28;20167;-58
2022/09/04 06:16:01;;;;;;;30.92;25.77;;;19.80;99.20;;;;;;5050372;28;20207;-59
2022/09/04 06:18:49;;;;;;;34.03;25.17;;;19.80;99.20;;;;;;5050843;28;20565;-58
2022/09/04 06:22:00;;;;;;;34.45;24.60;;;19.90;99.20;;;;;;5045920;28;20237;-64
2022/09/04 06:24:43;;;;;;;39.05;25.50;;;20.00;99.30;;;;;;5028568;28;20226;-58
2022/09/04 06:27:38;;;;;;;33.72;25.30;;;20.00;99.30;;;;;;5052257;28;20258;-56
2022/09/04 06:30:08;;;;;;;35.50;26.35;;;20.00;99.40;;;;;;5052390;28;20180;-61
2022/09/04 06:32:45;;;;;;;33.28;27.05;;;20.10;99.50;;;;;;5048464;28;20190;-58
2022/09/04 06:35:25;;;;;;;33.40;26.52;;;20.10;99.50;;;;;;5043435;28;20269;-61
2022/09/04 06:38:10;;;;;;;34.65;27.13;;;20.10;99.60;;;;;;5032871;28;20195;-59
2022/09/04 06:41:03;;;;;;;32.65;26.85;;;20.20;99.70;;;;;;5059743;28;20269;-59
2022/09/04 06:43:57;;;;;;;38.05;27.65;;;20.20;99.80;;;;;;5049486;28;21524;-60
2022/09/04 06:46:46;;;;;;;34.67;27.73;;;20.20;99.90;;;;;;5050968;28;20182;-60
2022/09/04 06:49:54;;;;;;;34.00;27.95;;;20.20;99.90;;;;;;5056044;28;20179;-59
2022/09/04 06:52:44;;;;;;;39.83;30.17;;;20.20;99.90;;;;;;5041932;28;20187;-61
2022/09/04 06:55:27;;;;;;;39.97;31.35;;;20.30;99.90;;;;;;5043232;28;20199;-59
2022/09/04 06:58:14;;;;;;;43.25;31.60;;;20.40;99.90;;;;;;5050498;28;20236;-60
2022/09/04 07:01:10;;;;;;;44.90;34.40;;;20.40;99.90;;;;;;5044071;28;20244;-60
2022/09/04 07:03:46;;;;;;;41.78;31.85;;;20.40;99.90;;;;;;5047686;28;20191;-64
2022/09/04 07:06:23;;;;;;;45.00;32.90;;;20.40;99.90;;;;;;5043106;28;20549;-61
2022/09/04 07:09:11;;;;;;;38.53;32.13;;;20.50;99.90;;;;;;5040899;28;20202;-61
2022/09/04 07:11:55;;;;;;;40.55;32.83;;;20.50;99.90;;;;;;5047845;28;20635;-62
2022/09/04 07:14:30;;;;;;;44.55;32.65;;;20.60;99.90;;;;;;5050556;28;20271;-65
2022/09/04 07:17:22;;;;;;;46.55;34.80;;;20.60;99.90;;;;;;5045182;28;20270;-65
2022/09/04 07:20:13;;;;;;;44.17;35.80;;;20.60;99.90;;;;;;5056574;28;20179;-62
2022/09/04 07:22:49;;;;;;;44.97;34.90;;;20.70;99.90;;;;;;5069346;28;20244;-64
2022/09/04 07:26:03;;;;;;;43.00;33.72;;;20.80;99.90;;;;;;5033331;28;20191;-64
2022/09/04 07:28:50;;;;;;;41.45;34.53;;;20.80;99.90;;;;;;5053411;28;20186;-61
2022/09/04 07:31:33;;;;;;;46.75;35.10;;;20.90;99.90;;;;;;5049881;28;20254;-60
2022/09/04 07:34:31;;;;;;;46.13;34.22;;;21.00;99.90;;;;;;5055108;28;20534;-59
2022/09/04 07:37:13;;;;;;;49.25;33.83;;;21.00;99.90;;;;;;5039464;28;20199;-63
2022/09/04 07:39:49;;;;;;;39.03;33.33;;;21.10;99.90;;;;;;5052135;28;20525;-63
2022/09/04 07:42:28;;;;;;;40.95;32.60;;;21.10;99.90;;;;;;5052058;28;20182;-63
2022/09/04 07:45:10;;;;;;;44.08;32.75;;;21.20;99.90;;;;;;5038223;28;20218;-61
2022/09/04 07:47:43;;;;;;;48.63;32.67;;;21.30;99.90;;;;;;5051151;28;20186;-61
2022/09/04 07:50:21;;;;;;;48.13;34.08;;;21.30;99.90;;;;;;5036158;28;20548;-62
2022/09/04 07:53:21;;;;;;;51.70;31.67;;;21.40;99.90;;;;;;5040600;28;20214;-61
2022/09/04 07:55:51;;;;;;;44.35;31.83;;;21.40;99.90;;;;;;5051988;28;20203;-60
2022/09/04 07:58:37;;;;;;;47.63;31.42;;;21.50;99.90;;;;;;5023099;28;20274;-61
2022/09/04 08:01:26;;;;;;;46.05;33.45;;;21.60;99.90;;;;;;5052030;28;20550;-60
2022/09/04 08:04:21;;;;;;;43.72;31.13;;;21.60;99.90;;;;;;5040276;28;20631;-65
2022/09/04 08:07:04;;;;;;;48.15;31.27;;;21.70;99.90;;;;;;5062092;28;20221;-64
2022/09/04 08:09:32;;;;;;;35.80;30.45;;;21.80;99.90;;;;;;5042134;28;20183;-62
2022/09/04 08:12:03;;;;;;;43.42;30.05;;;21.90;99.90;;;;;;5053651;28;20614;-63
2022/09/04 08:14:36;;;;;;;45.90;34.83;;;22.00;99.90;;;;;;5042512;28;20172;-61
2022/09/04 08:17:23;;;;;;;36.03;28.20;;;22.10;99.90;;;;;;5048718;28;20252;-62
2022/09/04 08:20:11;;;;;;;40.42;30.33;;;22.10;99.90;;;;;;5043952;28;20187;-61
2022/09/04 08:23:09;;;;;;;39.40;30.40;;;22.20;99.90;;;;;;5053634;28;20171;-63
2022/09/04 08:25:50;;;;;;;45.40;33.97;;;22.20;99.90;;;;;;5045647;28;20642;-62
2022/09/04 08:28:39;;;;;;;36.65;29.23;;;22.30;99.90;;;;;;5050563;28;20190;-61
2022/09/04 08:31:07;;;;;;;40.97;29.40;;;22.40;99.90;;;;;;5049145;28;20178;-60
2022/09/04 08:33:36;;;;;;;41.95;29.35;;;22.40;99.90;;;;;;5041642;28;20270;-60
2022/09/04 08:36:09;;;;;;;40.15;29.15;;;22.50;99.90;;;;;;5046974;28;20253;-63
2022/09/04 08:39:12;;;;;;;36.53;28.42;;;22.60;99.90;;;;;;5047352;28;20183;-63
2022/09/04 08:41:47;;;;;;;37.67;29.98;;;22.60;99.90;;;;;;5025298;28;20278;-64
2022/09/04 08:45:00;;;;;;;36.15;29.00;;;22.70;99.90;;;;;;5041525;28;20190;-65
2022/09/04 08:47:26;;;;;;;40.67;30.13;;;22.80;99.90;;;;;;5040972;28;20184;-59
2022/09/04 08:50:30;;;;;;;38.70;29.38;;;22.80;99.90;;;;;;5040527;28;20174;-61
2022/09/04 08:53:08;;;;;;;42.63;28.45;;;22.90;99.90;;;;;;5057416;28;20710;-62
2022/09/04 08:55:54;;;;;;;38.47;27.80;;;23.00;99.90;;;;;;5051535;28;20256;-60
2022/09/04 08:58:39;;;;;;;39.15;28.63;;;23.00;99.90;;;;;;5053101;28;20211;-60
2022/09/04 09:01:21;;;;;;;41.90;29.92;;;23.10;99.90;;;;;;5044281;28;21430;-61
2022/09/04 09:04:10;;;;;;;35.92;27.70;;;23.20;99.90;;;;;;5041061;28;20187;-59
2022/09/04 09:06:53;;;;;;;32.92;27.95;;;23.30;99.60;;;;;;5046416;28;20186;-59
2022/09/04 09:09:49;;;;;;;33.75;26.73;;;23.40;99.40;;;;;;5051853;28;20228;-59
2022/09/04 09:12:46;;;;;;;35.17;28.02;;;23.50;99.20;;;;;;5045384;28;20191;-59
2022/09/04 09:15:27;;;;;;;35.95;29.60;;;23.60;99.00;;;;;;5041653;28;20210;-59
2022/09/04 09:18:07;;;;;;;31.58;24.38;;;23.60;98.80;;;;;;5031605;28;20200;-59
2022/09/04 09:21:06;;;;;;;34.17;25.35;;;23.70;98.70;;;;;;5045579;28;20186;-59
2022/09/04 09:24:05;;;;;;;36.35;24.95;;;23.80;98.60;;;;;;5034932;28;20313;-60
2022/09/04 09:26:58;;;;;;;33.42;27.10;;;23.90;98.50;;;;;;5057135;28;20187;-59
2022/09/04 09:29:32;;;;;;;31.10;23.02;;;23.90;98.20;;;;;;5038573;28;20192;-60
2022/09/04 09:32:22;;;;;;;32.72;24.50;;;24.10;98.00;;;;;;5043563;28;20182;-60
2022/09/04 09:35:20;;;;;;;37.15;23.77;;;24.10;97.90;;;;;;5036259;28;20233;-60
2022/09/04 09:38:00;;;;;;;32.08;23.55;;;24.20;97.70;;;;;;5053379;28;20215;-59
2022/09/04 09:40:56;;;;;;;32.72;24.27;;;24.30;97.60;;;;;;5050844;28;20308;-59
2022/09/04 09:43:25;;;;;;;31.50;24.40;;;24.40;97.40;;;;;;5053197;28;20186;-59
2022/09/04 09:46:30;;;;;;;32.35;24.98;;;24.50;97.20;;;;;;5049324;28;20171;-59
2022/09/04 09:49:01;;;;;;;33.30;24.13;;;24.50;96.90;;;;;;4992047;28;20181;-60
2022/09/04 09:51:55;;;;;;;37.95;25.38;;;24.50;96.70;;;;;;4997675;28;20648;-60
2022/09/04 09:54:58;;;;;;;43.17;24.90;;;24.60;96.50;;;;;;5033883;28;20191;-63
2022/09/04 09:57:48;;;;;;;32.17;24.58;;;24.70;96.50;;;;;;5039146;28;20246;-65
2022/09/04 10:00:24;;;;;;;35.60;25.00;;;24.80;96.30;;;;;;5043254;28;20182;-63
2022/09/04 10:03:12;;;;;;;38.38;26.80;;;24.80;96.10;;;;;;5047496;28;20736;-65
2022/09/04 10:05:53;;;;;;;29.67;23.88;;;25.00;96.00;;;;;;5043205;28;20179;-67
2022/09/04 10:08:40;;;;;;;35.83;24.42;;;25.10;95.80;;;;;;5032938;28;20207;-64
2022/09/04 10:11:09;;;;;;;34.78;23.58;;;25.20;95.60;;;;;;5049503;28;20692;-68
2022/09/04 10:14:04;;;;;;;35.25;24.58;;;25.40;95.40;;;;;;5052471;28;20267;-71
2022/09/04 10:16:51;;;;;;;31.13;22.35;;;25.50;95.10;;;;;;5044101;28;20293;-70
2022/09/04 10:19:29;;;;;;;33.53;24.70;;;25.60;95.00;;;;;;5060325;28;20176;-67
2022/09/04 10:22:00;;;;;;;31.55;25.00;;;25.80;94.70;;;;;;5054219;28;20183;-70
2022/09/04 10:25:04;;;;;;;34.75;25.08;;;25.90;94.50;;;;;;5041212;28;20179;-61
2022/09/04 10:27:30;;;;;;;32.75;26.92;;;26.00;94.20;;;;;;5052777;28;20186;-67
2022/09/04 10:30:09;;;;;;;38.58;26.98;;;26.10;93.90;;;;;;5054902;28;20186;-69
2022/09/04 10:32:58;;;;;;;40.65;27.73;;;26.10;93.70;;;;;;5040934;28;20229;-64
2022/09/04 10:35:35;;;;;;;32.45;24.67;;;26.10;93.40;;;;;;5046113;28;20237;-67
2022/09/04 10:38:18;;;;;;;29.77;23.30;;;26.00;93.20;;;;;;5055217;28;20187;-68
2022/09/04 10:41:15;;;;;;;33.20;24.83;;;26.10;93.10;;;;;;5054695;28;20270;-68
2022/09/04 10:44:22;;;;;;;36.42;25.65;;;26.30;93.00;;;;;;5053862;28;20198;-64
2022/09/04 10:47:01;;;;;;;32.22;23.02;;;26.30;92.80;;;;;;5033153;28;20682;-64
2022/09/04 10:50:19;;;;;;;28.92;21.45;;;26.30;92.60;;;;;;5056506;28;20643;-61
2022/09/04 10:53:22;;;;;;;28.60;22.73;;;26.40;92.30;;;;;;5034730;28;20202;-60
2022/09/04 10:56:27;;;;;;;30.17;22.08;;;26.50;92.00;;;;;;5044714;28;20558;-65
2022/09/04 10:59:09;;;;;;;25.85;20.58;;;26.60;91.80;;;;;;5027886;28;20222;-66
2022/09/04 11:01:44;;;;;;;27.30;22.42;;;26.60;91.50;;;;;;5054637;28;20589;-62
2022/09/04 11:04:29;;;;;;;30.42;21.05;;;26.70;91.40;;;;;;5054475;28;20174;-66
2022/09/04 11:07:07;;;;;;;28.73;20.65;;;26.80;91.30;;;;;;5055658;28;20179;-61
2022/09/04 11:10:11;;;;;;;28.05;20.58;;;26.80;91.20;;;;;;5040555;28;20175;-62
2022/09/04 11:12:50;;;;;;;31.10;21.58;;;27.00;90.90;;;;;;5038272;28;20293;-64
2022/09/04 11:15:39;;;;;;;30.90;23.23;;;27.00;90.40;;;;;;5060616;28;20203;-65
2022/09/04 11:18:49;;;;;;;26.83;21.08;;;27.00;90.20;;;;;;5027437;28;20232;-67
2022/09/04 11:21:55;;;;;;;23.83;19.20;;;26.90;90.10;;;;;;5055498;28;20228;-66
2022/09/04 11:24:27;;;;;;;26.15;19.00;;;26.90;89.80;;;;;;5049730;28;20167;-65
2022/09/04 11:27:14;;;;;;;22.60;16.75;;;26.90;89.60;;;;;;5050381;28;20182;-65
2022/09/04 11:30:02;;;;;;;21.95;18.17;;;26.90;89.20;;;;;;5041664;28;20186;-64
2022/09/04 11:33:11;;;;;;;26.50;17.65;;;26.90;88.90;;;;;;5051437;28;20175;-63
2022/09/04 11:36:18;;;;;;;24.20;18.65;;;26.90;88.10;;;;;;5053343;28;20232;-63
2022/09/04 11:38:49;;;;;;;20.75;17.20;;;26.80;87.80;;;;;;5053869;28;20262;-63
2022/09/04 11:41:34;;;;;;;39.53;31.33;;;26.80;87.80;;;;;;5058374;28;20367;-62
2022/09/04 11:44:02;;;;;;;43.58;31.70;;;26.70;90.50;;;;;;5048525;28;20294;-61
2022/09/04 11:46:53;;;;;;;41.60;30.92;;;26.70;91.10;;;;;;5053707;28;20183;-60
2022/09/04 11:49:46;;;;;;;41.45;29.58;;;26.70;91.80;;;;;;5052099;28;20210;-62
2022/09/04 11:52:33;;;;;;;36.83;28.58;;;26.60;92.10;;;;;;5044246;28;20178;-63
2022/09/04 11:55:17;;;;;;;35.92;26.92;;;26.60;92.10;;;;;;5045976;28;20199;-61
2022/09/04 11:57:53;;;;;;;35.35;26.75;;;26.70;92.10;;;;;;5052335;28;20302;-61
2022/09/04 12:00:19;;;;;;;32.33;25.92;;;26.80;92.00;;;;;;5066072;28;20174;-63
2022/09/04 12:03:25;;;;;;;31.67;25.00;;;27.00;91.90;;;;;;5039422;28;20202;-62
2022/09/04 12:06:12;;;;;;;33.45;24.98;;;27.10;91.60;;;;;;5061100;28;20191;-63
2022/09/04 12:08:56;;;;;;;26.58;19.65;;;27.40;91.20;;;;;;5034841;28;20239;-61
2022/09/04 12:11:44;;;;;;;28.95;21.05;;;27.50;90.80;;;;;;5049356;28;20183;-61
2022/09/04 12:14:27;;;;;;;34.95;22.88;;;27.60;90.40;;;;;;5048412;28;20531;-63
2022/09/04 12:17:02;;;;;;;29.65;22.42;;;27.70;90.20;;;;;;5048990;28;20658;-63
2022/09/04 12:19:47;;;;;;;26.75;22.48;;;27.80;89.90;;;;;;5053423;28;20174;-63
2022/09/04 12:22:35;;;;;;;34.67;24.65;;;27.80;89.60;;;;;;5051664;28;20236;-64
2022/09/04 12:25:15;;;;;;;25.67;17.60;;;27.90;89.30;;;;;;5052911;28;20237;-62
2022/09/04 12:28:18;;;;;;;26.70;19.80;;;27.90;88.80;;;;;;5051689;28;20266;-64
2022/09/04 12:31:15;;;;;;;27.73;21.02;;;27.90;88.30;;;;;;5045995;28;20186;-61
2022/09/04 12:33:55;;;;;;;28.23;20.95;;;28.00;87.90;;;;;;5040907;28;20453;-63
2022/09/04 12:37:02;;;;;;;27.20;22.02;;;28.10;87.50;;;;;;5044240;28;20206;-62
2022/09/04 12:39:41;;;;;;;30.10;19.02;;;28.20;86.80;;;;;;5048549;28;20175;-62
2022/09/04 12:42:12;;;;;;;26.00;19.33;;;28.30;86.30;;;;;;5050886;28;20182;-61
2022/09/04 12:44:58;;;;;;;25.30;17.23;;;28.30;85.70;;;;;;5042559;28;20256;-60
2022/09/04 12:47:39;;;;;;;25.67;15.73;;;28.40;85.20;;;;;;5053184;28;20312;-61
2022/09/04 12:50:08;;;;;;;22.27;15.23;;;28.40;84.70;;;;;;5051687;28;20175;-60
2022/09/04 12:52:43;;;;;;;24.73;19.02;;;28.50;84.30;;;;;;5052366;28;20240;-60
2022/09/04 12:55:29;;;;;;;21.42;17.05;;;28.60;83.60;;;;;;5048588;28;20206;-61
2022/09/04 12:58:52;;;;;;;24.63;18.15;;;28.60;83.00;;;;;;5044732;28;20616;-61
2022/09/04 13:01:31;;;;;;;19.60;15.05;;;28.70;82.50;;;;;;5028511;28;20253;-59
2022/09/04 13:04:19;;;;;;;22.08;18.40;;;28.60;81.90;;;;;;5032468;28;20195;-64
2022/09/04 13:07:17;;;;;;;25.40;17.35;;;28.60;81.80;;;;;;5037883;28;20190;-65
2022/09/04 13:10:05;;;;;;;22.73;16.75;;;28.40;81.80;;;;;;5045186;28;20174;-64
2022/09/04 13:13:04;;;;;;;19.98;14.52;;;28.30;81.90;;;;;;5048911;28;20537;-62
2022/09/04 13:16:00;;;;;;;22.60;17.48;;;28.30;82.30;;;;;;5046316;28;20574;-61
2022/09/04 13:19:07;;;;;;;29.48;19.80;;;28.20;82.10;;;;;;5040306;28;20244;-61
2022/09/04 13:22:14;;;;;;;21.73;17.83;;;28.00;83.10;;;;;;5052328;28;20649;-62
2022/09/04 13:25:12;;;;;;;23.95;18.70;;;27.90;84.00;;;;;;5032449;28;20187;-64
2022/09/04 13:27:59;;;;;;;26.60;18.83;;;27.90;83.80;;;;;;5046032;28;20261;-62
2022/09/04 13:30:26;;;;;;;23.98;18.10;;;28.00;84.40;;;;;;5048554;28;20412;-64
2022/09/04 13:33:18;;;;;;;28.00;19.38;;;28.00;83.50;;;;;;5052240;28;20205;-59
2022/09/04 13:35:50;;;;;;;21.35;16.52;;;28.00;83.20;;;;;;5049094;28;20264;-63
2022/09/04 13:38:23;;;;;;;23.38;17.40;;;28.10;83.50;;;;;;5052146;28;20638;-63
2022/09/04 13:41:15;;;;;;;23.48;18.75;;;28.20;83.40;;;;;;5057256;28;20183;-63
2022/09/04 13:44:06;;;;;;;23.33;17.92;;;28.20;82.50;;;;;;5047464;28;20328;-63
2022/09/04 13:47:04;;;;;;;22.30;17.70;;;28.20;82.80;;;;;;5056320;28;20190;-63
2022/09/04 13:49:46;;;;;;;19.23;15.45;;;28.30;82.10;;;;;;5046015;28;20203;-59
2022/09/04 13:52:26;;;;;;;22.85;18.08;;;28.40;81.90;;;;;;5052156;28;20684;-68
2022/09/04 13:55:06;;;;;;;21.60;17.25;;;28.60;81.40;;;;;;5051288;28;20725;-64
2022/09/04 13:57:39;;;;;;;25.73;17.60;;;28.70;80.50;;;;;;5066840;28;20229;-63
2022/09/04 14:00:06;;;;;;;24.70;19.58;;;28.80;79.80;;;;;;5043561;28;20178;-66
2022/09/04 14:02:35;;;;;;;25.65;19.17;;;28.90;79.20;;;;;;5046892;28;20179;-64